Airfield :
LOGIN :

Register | Disclaimer

   EN    FR    IT 

 










Legend :    VFR   Marginal VFR   IFR   Intensive IFR   Very Intensive IFR
Visi :
Ceiling :
>= 8 km
>= 3000ft
5 to 8 km
1000 to 3000 ft
1500m to 5 km
500 to 1000 ft
800 to 1500m
200 to 500 ft
< 800m
< 200 ft
Symbols :   Thunderstorms  Fog  Heavy snow  Heavy precipitations  Wind > 20 kt
SIGMETs :     Misc.  Thunderstorms  Icing  Turbulence  Mountain Waves  Volcanic Ashes






- Airport Elevation : 2425 ft


ETHA - Altenstadt Army

CURRENT METAR :
  • 131020Z 25005KT 9999 FEW060TCU BKN100 20/17 Q1018 BLU BLU

EXPIRED METARs :
  • 130920Z 23007KT 9999 -SHRA SCT060TCU SCT070 BKN100 20/16 Q1018 BLU BLU+ TEMPO BLU
  • 130820Z 28009KT 9999 -SHRA FEW060TCU BKN070 19/15 Q1018 BLU BLU+ TEMPO BLU

TAF TAF ETHA
Valid from the 13 at 11:00 until the 13 at 20:00 UTC


131020Z 1311/1320 26007KT 9999 NSW SCT030 BKN060 BKN220
TEMPO 1311/1320 29012KT 8000 -SHRA BKN030TCU BKN180
PROB30 1312/1318 VRB15G25KT 3000 TSRA SCT015 BKN030CB



MET'MAP, your aeronautical weather chart ! - Copyright ORBIFLY December 2007 - Disclaimer

ORBIFLY MET'MAP TEAM :

Programming & Development : Alexandra Zaïnal
Concept & original design : Baudouin d'Aumeries
Assistance for programming : Marc-Olivier Méhu
Technical & hardware support : Manuel Goepfert

Contact : metmap@orbifly.com




SOURCES & CREDITS :

   NOAA